Time;durP1;ratioP1;P1;durP2;ratioP2;P2;SDS_P1;SDS_P2;PMS_P1;PMS_P2;Temp;Humidity;BMP_temperature;BMP_pressure;BME280_temperature;BME280_humidity;BME280_pressure;Samples;Min_cycle;Max_cycle;Signal;HPM_P1;HPM_P2
2021/05/04 00:01:44;;;;;;;7.40;5.38;;;6.20;61.10;;;;;;5081213;28;20529;-70
2021/05/04 00:04:11;;;;;;;9.77;5.90;;;6.20;61.60;;;;;;5075130;28;20198;-70
2021/05/04 00:06:37;;;;;;;9.25;5.28;;;6.20;61.80;;;;;;5093327;28;20193;-71
2021/05/04 00:09:05;;;;;;;12.80;5.30;;;6.20;62.20;;;;;;5081960;28;20594;-70
2021/05/04 00:11:32;;;;;;;7.18;4.25;;;6.30;61.40;;;;;;5082509;28;20213;-70
2021/05/04 00:14:00;;;;;;;7.47;5.38;;;6.30;61.10;;;;;;5086192;28;20703;-71
2021/05/04 00:16:27;;;;;;;7.38;5.57;;;6.30;61.10;;;;;;5072956;28;20190;-71
2021/05/04 00:18:54;;;;;;;6.82;4.40;;;6.30;61.40;;;;;;5077463;28;20237;-71
2021/05/04 00:21:22;;;;;;;6.60;4.20;;;6.30;62.00;;;;;;5093013;28;20219;-71
2021/05/04 00:23:48;;;;;;;5.75;2.85;;;6.20;61.70;;;;;;5087537;28;20197;-71
2021/05/04 00:26:15;;;;;;;6.82;3.42;;;6.20;62.20;;;;;;5072673;28;20234;-71
2021/05/04 00:28:43;;;;;;;4.47;3.65;;;6.20;61.80;;;;;;5075407;28;20193;-71
2021/05/04 00:31:09;;;;;;;5.60;3.55;;;6.20;61.70;;;;;;5092636;28;20217;-71
2021/05/04 00:33:37;;;;;;;4.22;3.72;;;6.20;61.80;;;;;;5089750;28;20185;-71
2021/05/04 00:36:04;;;;;;;5.57;3.75;;;6.20;62.30;;;;;;5072480;28;20197;-70
2021/05/04 00:38:30;;;;;;;5.50;3.85;;;6.10;63.00;;;;;;5073830;28;20654;-71
2021/05/04 00:40:57;;;;;;;6.20;3.67;;;6.20;63.80;;;;;;5092783;28;20193;-71
2021/05/04 00:43:27;;;;;;;4.60;3.58;;;6.10;63.30;;;;;;5091707;28;20197;-70
2021/05/04 00:45:54;;;;;;;3.97;2.60;;;6.10;63.30;;;;;;5072583;28;20255;-71
2021/05/04 00:48:21;;;;;;;3.50;2.85;;;6.10;63.80;;;;;;5072509;28;20228;-70
2021/05/04 00:50:48;;;;;;;4.65;3.13;;;6.00;64.10;;;;;;5091935;28;20251;-70
2021/05/04 00:53:16;;;;;;;4.15;2.80;;;5.90;63.80;;;;;;5092665;28;20284;-71
2021/05/04 00:55:43;;;;;;;5.97;2.90;;;5.90;64.30;;;;;;5071834;28;20185;-71
2021/05/04 00:58:12;;;;;;;4.68;2.95;;;5.80;64.30;;;;;;5072077;28;20748;-70
2021/05/04 01:00:46;;;;;;;3.83;2.80;;;5.70;65.20;;;;;;5091313;28;20200;-73
2021/05/04 01:03:13;;;;;;;4.38;2.85;;;5.70;65.70;;;;;;5092811;28;20204;-70
2021/05/04 01:05:52;;;;;;;;;;;;;;;;;;;;;
2021/05/04 01:08:19;;;;;;;4.13;3.20;;;5.70;65.80;;;;;;5070904;28;20192;-71
2021/05/04 01:10:46;;;;;;;5.00;2.25;;;5.60;66.60;;;;;;5072102;28;20214;-71
2021/05/04 01:13:24;;;;;;;4.45;2.63;;;5.60;66.30;;;;;;5073107;28;20238;-71
2021/05/04 01:15:51;;;;;;;4.05;3.00;;;5.60;65.90;;;;;;5072919;28;20669;-69
2021/05/04 01:18:17;;;;;;;3.90;2.80;;;5.60;65.80;;;;;;5077261;28;20241;-71
2021/05/04 01:20:49;;;;;;;4.53;3.08;;;5.50;65.70;;;;;;5092701;28;20189;-70
2021/05/04 01:23:23;;;;;;;4.45;3.55;;;5.50;66.20;;;;;;5088106;28;20181;-73
2021/05/04 01:25:53;;;;;;;4.88;3.17;;;5.40;65.70;;;;;;5073343;28;20204;-71
2021/05/04 01:28:25;;;;;;;5.60;3.65;;;5.40;66.60;;;;;;5076848;28;20219;-71
2021/05/04 01:31:00;;;;;;;4.68;2.88;;;5.40;66.20;;;;;;5092818;28;20578;-71
2021/05/04 01:33:40;;;;;;;3.50;2.67;;;5.30;66.30;;;;;;5087092;28;20188;-72
2021/05/04 01:36:07;;;;;;;3.97;3.20;;;5.30;66.90;;;;;;5072470;28;20276;-70
2021/05/04 01:38:34;;;;;;;3.15;2.30;;;5.30;66.90;;;;;;5077838;28;20263;-70
2021/05/04 01:41:01;;;;;;;4.65;2.50;;;5.30;67.90;;;;;;5091936;28;20193;-70
2021/05/04 01:43:38;;;;;;;3.03;2.60;;;5.30;67.30;;;;;;5087899;28;20664;-71
2021/05/04 01:46:05;;;;;;;4.95;2.45;;;5.30;67.50;;;;;;5078785;28;20377;-71
2021/05/04 01:48:31;;;;;;;4.43;2.97;;;5.30;68.00;;;;;;5088324;28;20189;-71
2021/05/04 01:50:58;;;;;;;4.43;2.80;;;5.20;68.10;;;;;;5071632;28;20217;-69
2021/05/04 01:53:25;;;;;;;4.80;3.25;;;5.20;68.40;;;;;;5074331;28;20197;-70
2021/05/04 01:55:58;;;;;;;3.75;3.08;;;5.20;68.90;;;;;;5085879;28;20213;-72
2021/05/04 01:58:25;;;;;;;6.25;3.38;;;5.20;68.80;;;;;;5073368;28;20664;-70
2021/05/04 02:00:54;;;;;;;3.47;2.65;;;5.30;68.10;;;;;;5092651;28;20571;-71
2021/05/04 02:03:21;;;;;;;4.20;3.28;;;5.20;68.20;;;;;;5090760;28;20341;-71
2021/05/04 02:05:56;;;;;;;4.80;3.42;;;5.30;67.80;;;;;;5075705;28;20184;-71
2021/05/04 02:09:01;;;;;;;4.95;3.40;;;5.30;67.60;;;;;;5093853;28;20193;-72
2021/05/04 02:11:27;;;;;;;4.97;3.25;;;5.30;67.20;;;;;;5075661;28;20352;-70
2021/05/04 02:13:56;;;;;;;4.55;3.10;;;5.30;67.30;;;;;;5079742;28;20223;-73
2021/05/04 02:16:23;;;;;;;4.18;3.10;;;5.30;67.60;;;;;;5089167;28;20233;-72
2021/05/04 02:18:53;;;;;;;4.65;3.20;;;5.20;67.50;;;;;;5074936;28;20246;-72
2021/05/04 02:21:30;;;;;;;7.00;3.00;;;5.20;67.10;;;;;;5077904;28;20196;-72
2021/05/04 02:23:58;;;;;;;4.05;2.75;;;5.20;66.80;;;;;;5095320;28;20193;-70
2021/05/04 02:26:46;;;;;;;5.72;3.25;;;5.20;66.90;;;;;;5088184;28;20605;-71
2021/05/04 02:29:22;;;;;;;3.53;2.80;;;5.20;66.30;;;;;;5075157;28;20243;-71
2021/05/04 02:31:49;;;;;;;5.35;2.78;;;5.10;66.70;;;;;;5085505;28;20637;-70
2021/05/04 02:34:16;;;;;;;5.18;2.80;;;5.10;67.90;;;;;;5095151;28;20189;-70
2021/05/04 02:36:42;;;;;;;3.60;3.17;;;5.00;67.90;;;;;;5084131;28;20229;-71
2021/05/04 02:39:10;;;;;;;4.20;3.10;;;5.00;68.00;;;;;;5074833;28;20190;-72
2021/05/04 02:41:36;;;;;;;3.40;2.60;;;5.00;68.10;;;;;;5083411;28;20190;-71
2021/05/04 02:44:04;;;;;;;3.50;2.75;;;5.00;68.10;;;;;;5095019;28;20189;-71
2021/05/04 02:46:55;;;;;;;4.32;2.90;;;5.00;68.20;;;;;;5086073;28;20182;-72
2021/05/04 02:49:26;;;;;;;4.88;2.92;;;5.00;68.50;;;;;;5075128;28;20193;-72
2021/05/04 02:51:52;;;;;;;4.28;2.65;;;4.90;68.80;;;;;;5085291;28;20281;-71
2021/05/04 02:54:24;;;;;;;3.75;2.40;;;4.90;68.90;;;;;;5094583;28;20189;-70
2021/05/04 02:56:50;;;;;;;5.22;3.33;;;4.80;68.90;;;;;;5083646;28;20250;-70
2021/05/04 02:59:17;;;;;;;4.35;2.80;;;4.70;69.50;;;;;;5074766;28;20201;-69
2021/05/04 03:01:53;;;;;;;4.35;3.03;;;4.60;69.70;;;;;;5083975;28;20670;-70
2021/05/04 03:04:30;;;;;;;4.30;3.42;;;4.60;70.10;;;;;;5094989;28;20230;-70
2021/05/04 03:06:57;;;;;;;4.55;3.17;;;4.60;69.70;;;;;;5082427;28;20247;-71
2021/05/04 03:09:30;;;;;;;4.75;2.65;;;4.70;70.30;;;;;;5074001;28;20198;-72
2021/05/04 03:11:56;;;;;;;5.95;3.95;;;4.70;70.30;;;;;;5085315;28;20244;-70
2021/05/04 03:14:24;;;;;;;5.63;3.40;;;4.80;70.30;;;;;;5094073;28;20191;-70
2021/05/04 03:16:50;;;;;;;5.25;2.80;;;4.80;69.90;;;;;;5083144;28;20273;-70
2021/05/04 03:19:17;;;;;;;4.75;3.67;;;4.80;70.00;;;;;;5073456;28;20229;-70
2021/05/04 03:21:44;;;;;;;4.20;2.42;;;4.90;69.70;;;;;;5091760;28;20219;-70
2021/05/04 03:24:10;;;;;;;4.90;3.25;;;4.90;69.50;;;;;;5081208;28;20272;-69
2021/05/04 03:26:37;;;;;;;4.05;3.00;;;4.90;69.50;;;;;;5081277;28;20342;-71
2021/05/04 03:29:04;;;;;;;7.97;5.05;;;4.80;69.50;;;;;;5094104;28;20197;-70
2021/05/04 03:31:34;;;;;;;6.78;4.30;;;4.80;69.90;;;;;;5086098;28;20231;-71
2021/05/04 03:34:01;;;;;;;5.00;3.65;;;4.80;69.80;;;;;;5073858;28;20259;-70
2021/05/04 03:36:27;;;;;;;6.38;3.92;;;4.80;69.80;;;;;;5079503;28;20271;-70
2021/05/04 03:38:54;;;;;;;4.10;2.78;;;4.80;69.10;;;;;;5093785;28;20663;-70
2021/05/04 03:41:20;;;;;;;4.30;3.55;;;4.70;69.20;;;;;;5088624;28;20190;-70
2021/05/04 03:43:48;;;;;;;5.13;3.50;;;4.50;69.80;;;;;;5073010;28;20640;-70
2021/05/04 03:46:14;;;;;;;4.57;3.17;;;4.60;70.00;;;;;;5079994;28;20268;-70
2021/05/04 03:48:41;;;;;;;4.75;3.20;;;4.50;69.60;;;;;;5073334;28;20191;-70
2021/05/04 03:51:07;;;;;;;4.75;4.00;;;4.50;70.00;;;;;;5083351;28;20274;-70
2021/05/04 03:53:36;;;;;;;4.40;3.08;;;4.50;70.10;;;;;;5093311;28;20204;-70
2021/05/04 03:56:03;;;;;;;3.85;2.70;;;4.50;69.70;;;;;;5091420;28;20189;-70
2021/05/04 03:58:29;;;;;;;4.75;3.40;;;4.50;69.60;;;;;;5093605;28;20312;-70
2021/05/04 04:00:57;;;;;;;5.13;2.95;;;4.50;69.70;;;;;;5085998;28;20232;-70
2021/05/04 04:03:23;;;;;;;5.43;3.70;;;4.50;70.20;;;;;;5073164;28;20220;-70
2021/05/04 04:05:50;;;;;;;4.65;3.63;;;4.50;70.60;;;;;;5078572;28;20193;-70
2021/05/04 04:08:17;;;;;;;7.25;4.13;;;4.50;70.30;;;;;;5093386;28;20217;-70
2021/05/04 04:10:44;;;;;;;9.43;4.60;;;4.40;70.40;;;;;;5088531;28;20220;-70
2021/05/04 04:13:10;;;;;;;4.40;3.35;;;4.40;70.90;;;;;;5072840;28;20190;-70
2021/05/04 04:15:37;;;;;;;5.18;3.60;;;4.30;71.10;;;;;;5076252;28;20181;-71
2021/05/04 04:18:05;;;;;;;3.70;3.08;;;4.30;71.30;;;;;;5093656;28;20189;-70
2021/05/04 04:20:32;;;;;;;4.35;3.35;;;4.30;72.20;;;;;;5090913;28;20687;-70
2021/05/04 04:22:59;;;;;;;4.28;3.33;;;4.30;70.90;;;;;;5073053;28;20217;-70
2021/05/04 04:25:25;;;;;;;7.10;3.13;;;4.20;71.50;;;;;;5074542;28;20204;-70
2021/05/04 04:27:52;;;;;;;6.70;3.50;;;4.20;71.50;;;;;;5093226;28;20239;-71
2021/05/04 04:30:19;;;;;;;5.15;3.47;;;4.20;71.90;;;;;;5091300;28;20717;-70
2021/05/04 04:32:46;;;;;;;5.38;3.35;;;4.30;72.00;;;;;;5073023;28;20193;-70
2021/05/04 04:35:14;;;;;;;4.28;3.08;;;4.30;72.00;;;;;;5072840;28;20621;-72
2021/05/04 04:37:41;;;;;;;4.45;3.17;;;4.40;72.00;;;;;;5072593;28;20272;-70
2021/05/04 04:40:09;;;;;;;5.13;3.67;;;4.50;72.30;;;;;;5072672;28;20189;-70
2021/05/04 04:42:36;;;;;;;5.85;4.45;;;4.60;72.00;;;;;;5092056;28;20220;-71
2021/05/04 04:45:03;;;;;;;6.75;3.63;;;4.70;71.60;;;;;;5093023;28;20189;-71
2021/05/04 04:47:30;;;;;;;6.43;3.58;;;4.90;71.10;;;;;;5091578;28;20584;-72
2021/05/04 04:49:57;;;;;;;5.20;4.20;;;5.00;70.70;;;;;;5079829;28;20224;-70
2021/05/04 04:52:24;;;;;;;6.18;3.90;;;5.10;70.30;;;;;;5072639;28;20624;-70
2021/05/04 04:54:52;;;;;;;5.25;3.33;;;5.20;70.10;;;;;;5083411;28;20193;-70
2021/05/04 04:57:18;;;;;;;5.30;3.22;;;5.30;70.20;;;;;;5077101;28;20568;-70
2021/05/04 04:59:45;;;;;;;5.22;4.05;;;5.50;69.60;;;;;;5071081;28;20189;-77
2021/05/04 05:02:12;;;;;;;6.00;3.72;;;5.60;68.80;;;;;;5072094;28;20198;-75
2021/05/04 05:04:38;;;;;;;5.07;3.20;;;5.60;68.60;;;;;;5080206;28;20200;-77
2021/05/04 05:07:08;;;;;;;6.50;3.58;;;5.80;68.50;;;;;;5079870;28;20261;-79
2021/05/04 05:09:36;;;;;;;7.05;4.68;;;5.90;68.30;;;;;;5079060;28;20185;-82
2021/05/04 05:12:04;;;;;;;8.25;3.05;;;6.00;68.30;;;;;;5091152;28;20217;-72
2021/05/04 05:14:33;;;;;;;4.40;3.10;;;6.10;68.70;;;;;;5082340;28;20208;-71
2021/05/04 05:17:03;;;;;;;3.60;2.72;;;6.20;68.30;;;;;;5071804;28;20554;-70
2021/05/04 05:19:30;;;;;;;3.92;2.40;;;6.30;67.80;;;;;;5073480;28;20547;-70
2021/05/04 05:21:58;;;;;;;4.43;2.40;;;6.40;68.10;;;;;;5073873;28;20547;-71
2021/05/04 05:24:25;;;;;;;3.80;2.72;;;6.50;67.70;;;;;;5071607;28;20182;-73
2021/05/04 05:26:55;;;;;;;3.08;2.05;;;6.60;65.20;;;;;;5072033;28;20189;-74
2021/05/04 05:29:22;;;;;;;5.40;2.38;;;6.80;64.30;;;;;;5072561;28;20535;-74
2021/05/04 05:31:48;;;;;;;2.90;1.95;;;6.90;63.30;;;;;;5072190;28;20205;-74
2021/05/04 05:34:17;;;;;;;3.00;2.13;;;6.90;63.00;;;;;;5071816;28;20189;-71
2021/05/04 05:36:43;;;;;;;2.78;2.20;;;7.00;62.70;;;;;;5087298;28;20186;-71
2021/05/04 05:39:16;;;;;;;5.30;2.30;;;7.20;62.10;;;;;;5072379;28;20197;-71
2021/05/04 05:41:46;;;;;;;5.10;2.75;;;7.30;62.10;;;;;;5074101;28;20240;-71
2021/05/04 05:44:20;;;;;;;3.17;2.30;;;7.50;60.70;;;;;;5075631;28;20247;-73
2021/05/04 05:46:48;;;;;;;3.80;2.80;;;7.70;61.00;;;;;;5076444;28;20190;-72
2021/05/04 05:49:19;;;;;;;4.45;2.25;;;7.80;60.00;;;;;;5077290;28;20193;-71
2021/05/04 05:51:46;;;;;;;3.70;2.40;;;8.00;59.60;;;;;;5075837;28;20297;-71
2021/05/04 05:54:48;;;;;;;6.82;2.60;;;8.20;59.70;;;;;;5078646;28;20200;-71
2021/05/04 05:57:14;;;;;;;3.10;2.10;;;8.40;59.60;;;;;;5075316;28;20635;-71
2021/05/04 05:59:42;;;;;;;2.72;2.00;;;8.50;58.80;;;;;;5074298;28;20198;-73
2021/05/04 06:02:09;;;;;;;2.72;1.73;;;8.70;59.10;;;;;;5076631;28;20192;-72
2021/05/04 06:04:52;;;;;;;3.60;1.85;;;8.80;60.00;;;;;;5075354;28;20202;-72
2021/05/04 06:07:19;;;;;;;2.90;1.70;;;9.10;58.70;;;;;;5074665;28;20276;-71
2021/05/04 06:09:47;;;;;;;2.90;1.88;;;9.30;57.20;;;;;;5073741;28;20219;-72
2021/05/04 06:12:14;;;;;;;2.38;1.50;;;9.30;57.70;;;;;;5071867;28;20271;-70
2021/05/04 06:14:42;;;;;;;2.78;1.80;;;9.40;57.90;;;;;;5076743;28;20185;-71
2021/05/04 06:17:10;;;;;;;2.80;1.90;;;9.60;58.00;;;;;;5075046;28;20194;-71
2021/05/04 06:19:37;;;;;;;3.30;2.08;;;9.80;57.20;;;;;;5075490;28;20217;-71
2021/05/04 06:22:03;;;;;;;3.08;1.83;;;10.00;55.10;;;;;;5075891;28;20225;-71
2021/05/04 06:24:30;;;;;;;3.45;1.92;;;10.10;54.80;;;;;;5073030;28;20193;-72
2021/05/04 06:30:15;;;;;;;2.50;1.75;;;10.60;54.50;;;;;;5065323;28;20683;-72
2021/05/04 06:32:43;;;;;;;4.93;2.25;;;10.80;52.60;;;;;;5080208;28;20186;-72
2021/05/04 06:35:19;;;;;;;3.55;2.40;;;11.00;52.60;;;;;;5072907;28;20197;-72
2021/05/04 06:37:51;;;;;;;5.25;2.00;;;11.30;51.80;;;;;;5075809;28;20201;-72
2021/05/04 06:40:18;;;;;;;2.92;1.45;;;11.50;51.70;;;;;;5074835;28;20196;-71
2021/05/04 06:42:47;;;;;;;2.45;1.70;;;11.70;49.00;;;;;;5082663;28;20186;-71
2021/05/04 06:45:15;;;;;;;4.18;1.85;;;11.80;48.60;;;;;;5075499;28;20269;-73
2021/05/04 06:47:42;;;;;;;2.70;2.10;;;12.00;48.00;;;;;;5074916;28;20749;-72
2021/05/04 06:50:12;;;;;;;3.38;1.70;;;12.20;49.10;;;;;;5076613;28;20263;-72
2021/05/04 06:52:43;;;;;;;4.13;2.20;;;12.40;48.20;;;;;;5082890;28;20197;-72
2021/05/04 06:55:14;;;;;;;3.20;2.28;;;12.60;47.90;;;;;;5073645;28;20186;-72
2021/05/04 06:57:45;;;;;;;2.97;2.08;;;12.90;47.60;;;;;;5077446;28;20221;-73
2021/05/04 07:00:15;;;;;;;2.60;1.70;;;13.10;47.10;;;;;;5070207;28;20197;-72
2021/05/04 07:02:46;;;;;;;3.35;1.90;;;13.30;45.50;;;;;;5083556;28;20197;-72
2021/05/04 07:05:20;;;;;;;2.78;2.08;;;13.50;46.10;;;;;;5082778;28;21265;-72
2021/05/04 07:08:03;;;;;;;2.88;1.80;;;13.70;46.40;;;;;;5079067;28;20192;-72
2021/05/04 07:10:35;;;;;;;2.85;1.92;;;13.90;44.80;;;;;;5076893;28;20206;-72
2021/05/04 07:13:13;;;;;;;3.28;1.95;;;14.10;43.70;;;;;;5081536;28;20190;-72
2021/05/04 07:15:47;;;;;;;2.20;1.80;;;14.20;43.00;;;;;;5079339;28;20185;-72
2021/05/04 07:18:28;;;;;;;2.50;1.50;;;14.40;42.60;;;;;;5079393;28;20435;-72
2021/05/04 07:20:58;;;;;;;6.37;2.17;;;14.50;42.80;;;;;;5082819;28;20467;-72
2021/05/04 07:23:26;;;;;;;3.42;2.28;;;14.60;43.90;;;;;;5078494;28;20441;-71
2021/05/04 07:25:53;;;;;;;3.57;2.40;;;14.70;44.40;;;;;;5080058;28;20212;-71
2021/05/04 07:28:25;;;;;;;2.77;2.03;;;14.90;45.10;;;;;;5084196;28;20549;-72
2021/05/04 07:30:54;;;;;;;4.50;2.50;;;15.10;45.00;;;;;;5075045;28;20476;-71
2021/05/04 07:33:27;;;;;;;3.17;1.97;;;15.30;45.10;;;;;;5073656;28;20895;-71
2021/05/04 07:35:58;;;;;;;3.00;1.83;;;15.30;42.80;;;;;;5075801;28;20927;-72
2021/05/04 07:38:27;;;;;;;3.13;1.87;;;15.50;42.30;;;;;;5074048;28;20443;-71
2021/05/04 07:41:08;;;;;;;2.40;1.80;;;15.70;39.70;;;;;;5073579;28;20526;-72
2021/05/04 07:43:41;;;;;;;4.70;1.77;;;15.90;40.00;;;;;;5075764;28;20440;-71
2021/05/04 07:46:09;;;;;;;5.63;1.90;;;16.20;41.90;;;;;;5073584;28;20930;-71
2021/05/04 07:48:48;;;;;;;4.47;1.63;;;16.50;37.50;;;;;;5076691;28;20436;-71
2021/05/04 07:51:15;;;;;;;2.23;1.37;;;16.50;36.50;;;;;;5073607;28;20501;-70
2021/05/04 07:53:46;;;;;;;2.47;1.87;;;16.80;38.10;;;;;;5072953;28;20431;-71
2021/05/04 07:56:13;;;;;;;4.40;4.00;;;17.00;36.80;;;;;;5074804;28;20432;-72
2021/05/04 07:58:41;;;;;;;3.33;2.77;;;17.20;36.60;;;;;;5073114;28;20444;-71
2021/05/04 08:01:09;;;;;;;3.40;2.37;;;17.40;36.60;;;;;;5073141;28;20431;-71
2021/05/04 08:03:36;;;;;;;7.07;3.10;;;17.50;32.70;;;;;;5073028;28;20440;-71
2021/05/04 08:06:06;;;;;;;5.10;2.27;;;17.60;33.90;;;;;;5074574;28;20515;-72
2021/05/04 08:08:35;;;;;;;3.27;1.60;;;17.80;35.30;;;;;;5073311;28;20436;-72
2021/05/04 08:11:07;;;;;;;6.60;1.70;;;18.00;33.50;;;;;;5084696;28;20471;-72
2021/05/04 08:13:39;;;;;;;2.83;1.83;;;18.10;32.70;;;;;;5086599;28;20514;-72
2021/05/04 08:16:13;;;;;;;3.50;1.73;;;18.20;32.70;;;;;;5075441;28;20424;-71
2021/05/04 08:18:45;;;;;;;7.03;1.97;;;18.20;30.20;;;;;;5073079;28;20428;-71
2021/05/04 08:21:15;;;;;;;5.17;1.50;;;18.30;32.70;;;;;;5072863;28;20527;-71
2021/05/04 08:23:45;;;;;;;2.77;1.83;;;18.50;33.40;;;;;;5072230;28;20522;-72
2021/05/04 08:26:16;;;;;;;4.10;1.50;;;18.80;33.40;;;;;;5073944;28;20459;-73
2021/05/04 08:28:45;;;;;;;2.50;1.47;;;19.10;33.70;;;;;;5083840;28;20440;-72
2021/05/04 08:31:16;;;;;;;2.57;1.70;;;19.40;34.50;;;;;;5089330;28;20478;-72
2021/05/04 08:33:44;;;;;;;6.30;1.73;;;19.60;33.20;;;;;;5078548;28;20834;-71
2021/05/04 08:36:12;;;;;;;7.70;2.67;;;19.80;31.00;;;;;;5074127;28;20436;-72
2021/05/04 08:38:44;;;;;;;4.87;1.90;;;20.00;31.00;;;;;;5075441;28;20436;-72
2021/05/04 08:41:14;;;;;;;5.53;2.07;;;20.10;30.30;;;;;;5072413;28;20786;-71
2021/05/04 08:43:45;;;;;;;2.80;1.37;;;20.40;31.50;;;;;;5072198;28;20451;-72
2021/05/04 08:46:12;;;;;;;3.10;1.47;;;20.60;31.80;;;;;;5076519;28;20867;-72
2021/05/04 08:48:43;;;;;;;2.27;1.33;;;20.80;31.70;;;;;;5074140;28;20443;-72
2021/05/04 08:51:13;;;;;;;2.60;1.40;;;21.00;31.60;;;;;;5082527;28;20482;-72
2021/05/04 08:53:41;;;;;;;2.23;1.50;;;21.20;30.00;;;;;;5072040;28;20509;-72
2021/05/04 08:56:13;;;;;;;2.87;1.60;;;21.40;31.10;;;;;;5071996;28;20938;-72
2021/05/04 08:58:51;;;;;;;2.43;1.50;;;21.60;29.70;;;;;;5086093;28;20458;-72
2021/05/04 09:01:19;;;;;;;3.93;2.27;;;21.70;29.50;;;;;;5081114;28;20436;-72
2021/05/04 09:03:49;;;;;;;5.67;1.57;;;21.80;29.60;;;;;;5075674;28;20451;-72
2021/05/04 09:06:28;;;;;;;3.03;1.47;;;22.00;29.90;;;;;;5073204;28;20450;-72
2021/05/04 09:09:07;;;;;;;2.70;1.77;;;22.00;29.50;;;;;;5071767;28;20447;-72
2021/05/04 09:11:45;;;;;;;2.23;1.27;;;22.10;29.60;;;;;;5076738;28;20470;-72
2021/05/04 09:14:19;;;;;;;3.87;1.23;;;22.20;30.10;;;;;;5076185;28;20432;-72
2021/05/04 09:17:08;;;;;;;5.20;1.60;;;22.30;28.70;;;;;;5089088;28;20445;-72
2021/05/04 09:19:41;;;;;;;2.97;1.50;;;22.20;27.90;;;;;;5096588;28;20430;-72
2021/05/04 09:22:10;;;;;;;3.13;1.30;;;22.30;27.10;;;;;;5086385;28;20431;-72
2021/05/04 09:24:42;;;;;;;3.80;1.60;;;22.40;28.50;;;;;;5081618;28;20493;-72
2021/05/04 09:27:16;;;;;;;2.83;1.93;;;22.40;27.00;;;;;;5096592;28;20541;-72
2021/05/04 09:29:44;;;;;;;3.60;1.50;;;22.60;27.70;;;;;;5080638;28;20454;-72
2021/05/04 09:32:18;;;;;;;2.43;1.60;;;22.70;28.40;;;;;;5085222;28;20476;-72
2021/05/04 09:34:48;;;;;;;2.80;2.20;;;22.80;28.50;;;;;;5076285;28;20553;-72
2021/05/04 09:37:36;;;;;;;2.27;1.23;;;22.90;27.30;;;;;;5086211;28;20435;-72
2021/05/04 09:40:24;;;;;;;3.67;1.50;;;23.10;27.60;;;;;;5095264;28;20949;-72
2021/05/04 09:43:07;;;;;;;2.10;1.30;;;23.10;26.80;;;;;;5076879;28;20432;-72
2021/05/04 09:45:37;;;;;;;7.57;2.23;;;23.30;27.60;;;;;;5080400;28;20857;-72
2021/05/04 09:48:16;;;;;;;3.03;1.50;;;23.40;27.10;;;;;;5085537;28;20522;-72
2021/05/04 09:50:48;;;;;;;7.97;1.63;;;23.50;26.20;;;;;;5087540;28;20793;-72
2021/05/04 09:53:21;;;;;;;3.63;1.87;;;23.50;25.80;;;;;;5075765;28;20447;-72
2021/05/04 09:55:53;;;;;;;4.27;1.63;;;23.70;26.50;;;;;;5089974;28;20439;-72
2021/05/04 09:58:36;;;;;;;2.53;1.50;;;23.70;25.40;;;;;;5096378;28;20528;-72
2021/05/04 10:01:05;;;;;;;2.77;1.77;;;23.80;24.50;;;;;;5083658;28;20488;-72
2021/05/04 10:03:46;;;;;;;2.70;1.80;;;23.90;25.40;;;;;;5081529;28;20451;-72
2021/05/04 10:06:17;;;;;;;2.67;1.30;;;23.90;24.60;;;;;;5076194;28;20567;-72
2021/05/04 10:08:53;;;;;;;2.30;1.50;;;24.00;23.60;;;;;;5075831;28;20482;-72
2021/05/04 10:11:22;;;;;;;2.60;1.73;;;24.10;24.10;;;;;;5076201;28;20507;-72
2021/05/04 10:13:55;;;;;;;4.00;2.43;;;24.10;23.90;;;;;;5079950;28;20512;-73
2021/05/04 10:16:24;;;;;;;2.23;1.60;;;24.20;25.10;;;;;;5082396;28;20444;-72
2021/05/04 10:18:51;;;;;;;2.80;1.50;;;24.30;25.60;;;;;;5084855;28;20446;-72
2021/05/04 10:21:20;;;;;;;4.57;1.60;;;24.50;24.80;;;;;;5081547;28;20435;-72
2021/05/04 10:23:46;;;;;;;2.30;1.63;;;24.60;23.50;;;;;;5083491;28;20448;-72
2021/05/04 10:26:16;;;;;;;2.87;1.60;;;24.60;23.60;;;;;;5081721;28;20436;-72
2021/05/04 10:28:50;;;;;;;3.43;2.00;;;24.40;22.30;;;;;;5083516;28;20448;-72
2021/05/04 10:31:17;;;;;;;2.83;1.70;;;24.30;23.00;;;;;;5081081;28;20479;-72
2021/05/04 10:33:45;;;;;;;2.70;1.87;;;24.50;23.30;;;;;;5083086;28;20446;-72
2021/05/04 10:36:31;;;;;;;2.40;1.47;;;24.60;21.70;;;;;;5079946;28;20444;-73
2021/05/04 10:38:58;;;;;;;2.57;1.40;;;24.60;22.30;;;;;;5081640;28;20440;-72
2021/05/04 10:41:25;;;;;;;4.60;1.67;;;24.50;22.80;;;;;;5072502;28;20440;-72
2021/05/04 10:44:08;;;;;;;2.20;1.27;;;24.50;22.20;;;;;;5082767;28;20436;-72
2021/05/04 10:46:38;;;;;;;2.67;1.37;;;24.60;23.00;;;;;;5084281;28;20431;-72
2021/05/04 10:49:06;;;;;;;3.37;1.50;;;24.70;23.60;;;;;;5095036;28;20528;-72
2021/05/04 10:51:50;;;;;;;2.73;1.60;;;24.70;23.00;;;;;;5079840;28;20456;-72
2021/05/04 10:54:18;;;;;;;3.03;1.63;;;24.80;22.80;;;;;;5093526;28;20477;-72
2021/05/04 10:56:48;;;;;;;4.30;1.90;;;24.80;21.50;;;;;;5078477;28;20953;-72
2021/05/04 10:59:45;;;;;;;2.30;1.40;;;24.70;20.80;;;;;;5074707;28;20493;-72
2021/05/04 11:02:33;;;;;;;4.33;1.47;;;24.70;21.70;;;;;;5091786;28;20538;-72
2021/05/04 11:04:59;;;;;;;3.00;1.47;;;24.80;22.10;;;;;;5074556;28;20995;-73
2021/05/04 11:07:56;;;;;;;4.93;1.63;;;24.90;21.60;;;;;;5081540;28;20481;-72
2021/05/04 11:10:25;;;;;;;4.23;1.50;;;24.90;21.30;;;;;;5092994;28;20523;-72
2021/05/04 11:12:52;;;;;;;3.00;1.80;;;25.00;21.70;;;;;;5094564;28;20483;-72
2021/05/04 11:15:20;;;;;;;2.67;1.70;;;25.10;21.70;;;;;;5075839;28;20432;-72
2021/05/04 11:17:47;;;;;;;4.87;1.73;;;25.10;21.00;;;;;;5082131;28;20431;-72
2021/05/04 11:20:32;;;;;;;2.63;1.73;;;25.10;21.50;;;;;;5092440;28;20488;-72
2021/05/04 11:22:58;;;;;;;3.37;1.63;;;25.30;22.20;;;;;;5079881;28;20855;-72
2021/05/04 11:25:32;;;;;;;4.63;2.80;;;25.50;21.80;;;;;;5093205;28;20446;-72
2021/05/04 11:28:02;;;;;;;2.80;1.90;;;25.60;21.80;;;;;;5093793;28;20431;-72
2021/05/04 11:30:37;;;;;;;3.00;1.57;;;25.70;22.40;;;;;;5090284;28;20440;-72
2021/05/04 11:33:29;;;;;;;3.37;1.87;;;25.70;20.90;;;;;;5073818;28;20458;-72
2021/05/04 11:35:58;;;;;;;2.10;1.30;;;25.60;21.40;;;;;;5073643;28;20439;-72
2021/05/04 11:38:26;;;;;;;3.77;1.80;;;25.70;20.80;;;;;;5075707;28;20788;-72
2021/05/04 11:40:53;;;;;;;2.63;1.40;;;25.60;21.50;;;;;;5089151;28;20458;-72
2021/05/04 11:43:28;;;;;;;3.90;1.70;;;25.60;21.80;;;;;;5093142;28;20438;-72
2021/05/04 11:45:56;;;;;;;3.17;1.30;;;25.50;21.90;;;;;;5089397;28;20435;-72
2021/05/04 11:48:28;;;;;;;4.60;1.50;;;25.60;21.00;;;;;;5077021;28;20491;-72
2021/05/04 11:50:55;;;;;;;2.90;1.90;;;25.50;21.70;;;;;;5078674;28;20444;-72
2021/05/04 11:53:21;;;;;;;2.43;1.53;;;25.60;21.70;;;;;;5091945;28;20463;-72
2021/05/04 11:55:51;;;;;;;3.67;1.73;;;25.60;21.30;;;;;;5083230;28;20965;-72
2021/05/04 11:58:22;;;;;;;2.33;1.67;;;25.60;21.70;;;;;;5074208;28;20773;-71
2021/05/04 12:00:58;;;;;;;3.97;1.77;;;25.50;21.70;;;;;;5084871;28;20545;-72
2021/05/04 12:03:25;;;;;;;4.47;2.03;;;25.30;21.60;;;;;;5083512;28;20439;-72
2021/05/04 12:05:52;;;;;;;4.07;2.07;;;25.30;22.70;;;;;;5085332;28;20454;-72
2021/05/04 12:08:20;;;;;;;2.90;1.70;;;25.20;21.80;;;;;;5089063;28;20436;-72
2021/05/04 12:10:49;;;;;;;4.50;1.70;;;25.10;20.50;;;;;;5086941;28;20447;-72
2021/05/04 12:13:19;;;;;;;2.50;1.80;;;25.00;21.50;;;;;;5087056;28;20505;-72
2021/05/04 12:15:47;;;;;;;3.40;2.03;;;24.90;22.30;;;;;;5088955;28;20446;-71
2021/05/04 12:18:17;;;;;;;3.63;1.67;;;24.90;22.00;;;;;;5092255;28;20431;-72
2021/05/04 12:20:45;;;;;;;3.40;1.67;;;24.70;21.70;;;;;;5093218;28;20978;-72
2021/05/04 12:23:14;;;;;;;3.40;2.20;;;24.60;22.10;;;;;;5087588;28;20506;-72
2021/05/04 12:25:51;;;;;;;3.10;2.00;;;24.40;22.20;;;;;;5072891;28;20933;-72
2021/05/04 12:28:19;;;;;;;2.50;1.63;;;24.20;22.30;;;;;;5078267;28;20439;-72
2021/05/04 12:30:47;;;;;;;2.13;1.40;;;24.00;22.50;;;;;;5093054;28;20439;-72
2021/05/04 12:33:17;;;;;;;4.60;1.60;;;23.80;22.60;;;;;;5088453;28;20439;-71
2021/05/04 12:35:51;;;;;;;2.40;1.60;;;23.50;22.90;;;;;;5072836;28;20436;-71
2021/05/04 12:38:23;;;;;;;2.37;1.90;;;23.30;22.20;;;;;;5077243;28;20763;-71
2021/05/04 12:40:54;;;;;;;3.47;1.90;;;23.10;22.40;;;;;;5091832;28;20518;-72
2021/05/04 12:43:25;;;;;;;2.93;2.33;;;22.90;23.50;;;;;;5093334;28;20442;-71
2021/05/04 12:46:17;;;;;;;2.97;1.50;;;22.90;23.00;;;;;;5090624;28;20446;-71
2021/05/04 12:48:44;;;;;;;2.60;1.63;;;22.70;23.70;;;;;;5090741;28;20434;-71
2021/05/04 12:51:13;;;;;;;5.63;2.00;;;22.70;24.40;;;;;;5076508;28;20474;-71
2021/05/04 12:53:43;;;;;;;3.30;1.77;;;22.70;23.60;;;;;;5081356;28;20436;-72
2021/05/04 12:56:12;;;;;;;2.20;1.70;;;22.70;23.50;;;;;;5079032;28;20570;-72
2021/05/04 12:59:04;;;;;;;7.23;1.87;;;22.70;23.90;;;;;;5078837;28;20454;-72
2021/05/04 13:01:38;;;;;;;2.70;1.70;;;22.80;24.20;;;;;;5092373;28;20467;-72
2021/05/04 13:04:09;;;;;;;2.70;1.50;;;22.80;24.10;;;;;;5081781;28;20432;-71
2021/05/04 13:06:46;;;;;;;2.70;1.50;;;22.80;22.90;;;;;;5086754;28;20446;-71
2021/05/04 13:09:20;;;;;;;2.67;1.33;;;22.80;23.70;;;;;;5090084;28;20441;-71
2021/05/04 13:12:02;;;;;;;2.80;1.60;;;22.90;24.50;;;;;;5082135;28;20508;-72
2021/05/04 13:14:50;;;;;;;3.83;2.03;;;23.00;25.00;;;;;;5072617;28;20440;-72